Latest Weather Observations for Dunalley

IDT60901

Issued at 9:01 pm EST Sunday 3 July 2022 (issued every 10 minutes, with the page automatically refreshed every 10 minutes)

About weather observations | Map of Hobart area stations | Latest observations for Hobart area | Other Formats
Station Details ID: 094254 Name: DUNALLEY (STROUD POINT) Lat: -42.90 Lon: 147.79 Height: 12.43 m
Data from the previous 72 hours. | See also: Recent months at Dunalley
Date/Time
EST
Temp
°C
App
Temp
°C
Dew
Point
°C
Rel
Hum
%
Delta-T
°C
Wind Press
QNH
hPa
Press
MSL
hPa
Rain since
9am
mm
Dir  Spd
km/h
Gust
km/h
Spd
kts
Gust
kts
03/09:00pm 7.0 4.9 5.9 93 0.5 NNE 6 7 3 4 1027.0 1027.1 0.0
03/08:30pm 6.0 2.8 5.3 95 0.3 NNE 11 13 6 7 1027.2 1027.3 0.0
03/08:00pm 5.9 3.4 4.9 93 0.4 NNE 7 11 4 6 1027.3 1027.4 0.0
03/07:30pm 6.5 3.3 5.3 92 0.5 NNE 11 13 6 7 1027.3 1027.4 0.0
03/07:00pm 7.1 4.1 5.9 92 0.5 NNE 11 13 6 7 1027.2 1027.3 0.0
03/06:30pm 6.9 3.8 5.5 91 0.6 NNE 11 13 6 7 1027.2 1027.3 0.0
03/06:00pm 8.0 5.3 5.6 85 1.1 NNE 9 9 5 5 1027.0 1027.1 0.0
03/05:30pm 8.0 5.6 5.3 83 1.2 SSE 7 9 4 5 1027.0 1027.1 0.0
03/05:00pm 7.9 6.4 5.0 82 1.3 S 2 4 1 2 1026.8 1026.9 0.0
03/04:30pm 9.2 8.1 5.0 75 1.9 CALM 0 0 0 0 1026.7 1026.8 0.0
03/04:00pm 10.3 9.0 4.2 66 2.7 CALM 0 0 0 0 1026.9 1027.0 0.0
03/03:30pm 10.9 9.7 4.8 66 2.8 CALM 0 0 0 0 1026.9 1027.0 0.0
03/03:00pm 10.7 9.1 4.4 65 2.8 S 2 2 1 1 1026.8 1026.9 0.0
03/02:30pm 10.7 9.1 4.6 66 2.7 S 2 4 1 2 1026.9 1027.0 0.0
03/02:00pm 10.3 8.1 5.3 71 2.3 S 6 6 3 3 1027.1 1027.2 0.0
03/01:30pm 10.6 8.5 5.6 71 2.3 S 6 6 3 3 1027.5 1027.6 0.0
03/01:00pm 10.6 8.4 5.4 70 2.4 SSE 6 7 3 4 1027.7 1027.8 0.0
03/12:30pm 10.1 7.8 4.7 69 2.4 SSE 6 7 3 4 1028.1 1028.2 0.0
03/12:00pm 9.8 7.5 5.0 72 2.1 SSE 6 7 3 4 1028.3 1028.4 0.0
03/11:30am 9.1 6.3 5.3 77 1.7 SSE 9 11 5 6 1028.6 1028.7 0.0
03/11:00am 8.9 6.7 5.3 78 1.6 N 6 7 3 4 1028.9 1029.0 0.0
03/10:30am 7.9 6.4 5.2 83 1.2 N 2 4 1 2 1029.1 1029.2 0.0
03/10:00am 7.3 6.1 4.6 83 1.2 CALM 0 0 0 0 1029.2 1029.3 0.0
03/09:30am 7.6 6.4 4.7 82 1.3 CALM 0 2 0 1 1028.9 1029.0 0.0
03/09:00am 5.8 3.7 3.8 87 0.8 N 4 6 2 3 1029.1 1029.2 0.2
03/08:30am 6.3 5.1 4.5 88 0.8 CALM 0 0 0 0 1029.0 1029.1 0.2
03/08:00am 4.9 3.1 3.6 91 0.5 N 2 4 1 2 1028.8 1028.9 0.2
03/07:30am 4.7 2.5 3.2 90 0.6 N 4 6 2 3 1028.6 1028.7 0.2
03/07:00am 4.9 2.8 3.9 93 0.4 N 4 4 2 2 1028.4 1028.5 0.0
03/06:30am 4.4 2.9 3.2 92 0.5 CALM 0 4 0 2 1028.1 1028.2 0.0
03/06:00am 4.1 2.2 2.8 91 0.5 N 2 7 1 4 1027.9 1028.0 0.0
03/05:30am 3.5 1.2 2.8 95 0.3 N 4 6 2 3 1028.0 1028.1 0.0
03/05:00am 3.4 1.0 2.4 93 0.4 N 4 7 2 4 1027.7 1027.8 0.0
03/04:30am 4.4 1.7 2.4 87 0.8 N 6 9 3 5 1027.7 1027.8 0.0
03/04:00am 4.5 2.1 2.4 86 0.8 NNW 4 7 2 4 1027.8 1027.9 0.0
03/03:30am 6.2 4.0 3.2 81 1.3 SW 4 11 2 6 1027.9 1028.0 0.0
03/03:00am 6.3 4.0 2.6 77 1.5 SSW 4 7 2 4 1028.1 1028.2 0.0
03/02:30am 6.1 3.5 3.4 83 1.1 SSW 6 7 3 4 1028.1 1028.2 0.0
03/02:00am 6.0 3.4 3.2 82 1.2 SSW 6 9 3 5 1028.2 1028.3 0.0
03/01:30am 6.2 4.0 3.2 81 1.3 SE 4 7 2 4 1028.2 1028.3 0.0
03/01:00am 6.4 4.2 3.6 82 1.2 NW 4 7 2 4 1028.3 1028.4 0.0
03/12:30am 4.6 2.3 2.8 88 0.7 NNW 4 7 2 4 1028.4 1028.5 0.0
03/12:00am 5.5 3.2 2.5 81 1.2 N 4 7 2 4 1028.4 1028.5 0.0
 
Date/Time
EST
Temp
°C
App
Temp
°C
Dew
Point
°C
Rel
Hum
%
Delta-T
°C
Wind Press
QNH
hPa
Press
MSL
hPa
Rain since
9am
mm
Dir  Spd
km/h
Gust
km/h
Spd
kts
Gust
kts
02/11:30pm 5.9 4.1 3.2 83 1.1 NNW 2 15 1 8 1028.5 1028.6 0.0
02/11:00pm 5.5 3.3 3.2 85 0.9 N 4 7 2 4 1028.3 1028.4 0.0
02/10:30pm 5.2 3.6 2.6 83 1.1 CALM 0 4 0 2 1028.5 1028.6 0.0
02/10:00pm 5.8 3.6 3.3 84 1.0 N 4 6 2 3 1028.4 1028.5 0.0
02/09:30pm 6.3 4.5 5.4 94 0.4 N 4 4 2 2 1028.4 1028.5 0.0
02/09:00pm 6.0 4.0 4.6 91 0.6 N 4 4 2 2 1028.3 1028.4 0.0
02/08:30pm 6.0 3.7 3.0 81 1.2 N 4 4 2 2 1028.3 1028.4 0.0
02/08:00pm 6.0 4.3 4.2 88 0.8 N 2 4 1 2 1028.2 1028.3 0.0
02/07:30pm 5.7 3.3 4.3 91 0.6 N 6 9 3 5 1027.9 1028.0 0.0
02/07:00pm 6.0 4.0 4.5 90 0.6 N 4 6 2 3 1027.7 1027.8 0.0
02/06:30pm 6.2 3.7 3.7 84 1.1 N 6 7 3 4 1027.4 1027.5 0.0
02/06:00pm 6.8 4.3 4.6 86 0.9 WNW 7 11 4 6 1027.1 1027.2 0.0
02/05:30pm 7.5 5.7 3.7 77 1.6 WNW 2 4 1 2 1027.2 1027.3 0.0
02/05:00pm 8.7 7.5 4.5 75 1.8 CALM 0 0 0 0 1027.0 1027.1 0.0
02/04:30pm 8.4 6.4 4.4 76 1.8 WNW 4 4 2 2 1027.1 1027.2 0.0
02/04:00pm 11.4 9.0 4.2 61 3.2 WNW 6 9 3 5 1027.1 1027.2 0.0
02/03:30pm 11.7 9.1 4.4 61 3.3 W 7 9 4 5 1027.1 1027.2 0.0
02/03:00pm 12.2 8.8 4.2 58 3.6 WNW 11 15 6 8 1027.0 1027.1 0.0
02/02:30pm 12.2 8.7 3.7 56 3.8 WNW 11 17 6 9 1027.0 1027.1 0.0
02/02:00pm 12.1 8.2 3.3 55 3.9 WNW 13 17 7 9 1027.0 1027.1 0.0
02/01:30pm 12.1 7.9 3.9 57 3.7 WNW 15 20 8 11 1027.1 1027.2 0.0
02/01:00pm 11.7 7.4 3.5 57 3.6 WNW 15 19 8 10 1027.4 1027.5 0.0
02/12:30pm 11.8 7.6 3.6 57 3.6 NW 15 20 8 11 1027.7 1027.8 0.0
02/12:00pm 11.2 6.6 3.5 59 3.4 NW 17 22 9 12 1028.0 1028.1 0.0
02/11:30am 10.9 6.3 3.7 61 3.2 WNW 17 24 9 13 1028.4 1028.5 0.0
02/11:00am 10.6 6.7 3.6 62 3.0 WNW 13 20 7 11 1028.7 1028.8 0.0
02/10:30am 9.8 5.5 3.1 63 2.9 NW 15 22 8 12 1028.8 1028.9 0.0
02/10:00am 9.2 5.3 3.2 66 2.6 NW 13 20 7 11 1028.6 1028.7 0.0
02/09:30am 8.6 4.3 3.2 69 2.3 NNW 15 26 8 14 1028.2 1028.3 0.0
02/09:00am 7.6 2.2 2.7 71 2.0 NW 20 30 11 16 1028.2 1028.3 0.0
02/08:30am 6.6 2.2 2.5 75 1.7 WNW 15 20 8 11 1028.3 1028.4 0.0
02/08:00am 6.0 0.3 2.6 79 1.4 W 22 26 12 14 1028.6 1028.7 0.0
02/07:30am 6.2 2.1 2.3 76 1.6 NW 13 17 7 9 1028.1 1028.2 0.0
02/07:00am 6.4 1.5 2.3 75 1.7 NW 17 28 9 15 1027.8 1027.9 0.0
02/06:30am 6.4 2.3 2.3 75 1.7 NW 13 22 7 12 1027.7 1027.8 0.0
02/06:00am 5.7 2.7 2.0 77 1.5 NW 7 17 4 9 1027.9 1028.0 0.0
02/05:30am 5.5 1.0 2.2 79 1.3 NNW 15 20 8 11 1027.6 1027.7 0.0
02/05:00am 5.7 1.6 2.0 77 1.5 NW 13 20 7 11 1027.6 1027.7 0.0
02/04:30am 6.0 1.5 2.1 76 1.6 NW 15 20 8 11 1027.9 1028.0 0.0
02/04:00am 5.3 2.5 2.0 79 1.3 WNW 6 11 3 6 1028.0 1028.1 0.0
02/03:30am 5.8 2.9 2.6 80 1.3 WSW 7 11 4 6 1028.2 1028.3 0.0
02/03:00am 5.6 2.7 2.4 80 1.3 WSW 7 9 4 5 1028.4 1028.5 0.0
02/02:30am 6.2 2.9 2.7 78 1.4 WSW 9 15 5 8 1028.5 1028.6 0.0
02/02:00am 5.9 2.9 4.1 88 0.8 SW 9 13 5 7 1028.4 1028.5 0.0
02/01:30am 5.6 2.8 2.9 83 1.1 SW 7 9 4 5 1028.3 1028.4 0.0
02/01:00am 6.1 3.1 3.9 86 0.9 SW 9 15 5 8 1028.6 1028.7 0.0
02/12:30am 5.4 3.0 4.4 93 0.4 WNW 6 11 3 6 1028.9 1029.0 0.0
02/12:00am 5.1 3.4 4.2 94 0.4 NNE 2 4 1 2 1029.1 1029.2 0.0
 
Date/Time
EST
Temp
°C
App
Temp
°C
Dew
Point
°C
Rel
Hum
%
Delta-T
°C
Wind Press
QNH
hPa
Press
MSL
hPa
Rain since
9am
mm
Dir  Spd
km/h
Gust
km/h
Spd
kts
Gust
kts
01/11:30pm 5.0 2.9 4.1 94 0.4 NNE 4 4 2 2 1029.2 1029.3 0.0
01/11:00pm 5.0 2.9 4.0 93 0.4 NNE 4 4 2 2 1029.3 1029.4 0.0
01/10:30pm 4.9 3.1 3.7 92 0.5 NNE 2 4 1 2 1029.3 1029.4 0.0
01/10:00pm 5.1 3.8 3.9 92 0.5 CALM 0 0 0 0 1029.3 1029.4 0.0
01/09:30pm 4.5 1.9 3.0 90 0.6 NNE 6 7 3 4 1029.2 1029.3 0.0
01/09:00pm 4.2 2.6 2.6 89 0.6 CALM 0 2 0 1 1029.2 1029.3 0.0
01/08:30pm 5.2 3.0 3.4 88 0.7 NNE 4 6 2 3 1029.3 1029.4 0.0
01/08:00pm 5.2 2.7 3.7 90 0.6 NNE 6 7 3 4 1029.3 1029.4 0.0
01/07:30pm 5.9 3.5 4.4 90 0.6 NNE 6 6 3 3 1029.3 1029.4 0.0
01/07:00pm 5.5 2.7 3.3 86 0.9 NNE 7 9 4 5 1029.1 1029.2 0.0
01/06:30pm 6.2 2.5 2.5 77 1.5 N 11 15 6 8 1029.0 1029.1 0.0
01/06:00pm 8.5 4.5 2.7 67 2.4 NNW 13 15 7 8 1028.8 1028.9 0.0
01/05:30pm 8.3 4.6 2.5 67 2.4 NW 11 15 6 8 1028.9 1029.0 0.0
01/05:00pm 8.3 5.1 2.8 68 2.3 NW 9 11 5 6 1028.7 1028.8 0.0
01/04:30pm 8.4 5.1 2.6 67 2.4 WNW 9 11 5 6 1028.7 1028.8 0.0
01/04:00pm 10.2 7.4 3.3 62 3.0 W 7 9 4 5 1028.7 1028.8 0.0
01/03:30pm 10.7 7.5 3.0 59 3.3 W 9 13 5 7 1028.5 1028.6 0.0
01/03:00pm 11.1 7.5 3.2 58 3.4 W 11 15 6 8 1028.5 1028.6 0.0
01/02:30pm 11.3 7.7 3.1 57 3.6 W 11 15 6 8 1028.5 1028.6 0.0
01/02:00pm 11.4 7.7 2.4 54 3.8 WNW 11 17 6 9 1028.8 1028.9 0.0
01/01:30pm 11.4 6.9 2.4 54 3.9 WNW 15 19 8 10 1029.0 1029.1 0.0
01/01:00pm 11.1 6.3 2.4 55 3.7 WNW 17 22 9 12 1029.2 1029.3 0.0
01/12:30pm 11.0 6.7 3.1 58 3.4 NW 15 20 8 11 1029.3 1029.4 0.0
01/12:00pm 10.5 5.7 2.6 58 3.4 NW 17 24 9 13 1029.4 1029.5 0.0
01/11:30am 10.0 5.2 2.4 59 3.2 NW 17 24 9 13 1029.7 1029.8 0.0
01/11:00am 9.7 4.8 2.3 60 3.1 NW 17 24 9 13 1030.0 1030.0 0.0
01/10:30am 9.0 3.1 1.9 61 3.0 NW 22 30 12 16 1030.2 1030.2 0.0
01/10:00am 8.2 1.9 1.6 63 2.7 NW 24 33 13 18 1030.2 1030.2 0.0
01/09:30am 7.8 1.9 1.4 64 2.6 NW 22 32 12 17 1030.1 1030.1 0.0
01/09:00am 7.3 1.9 1.2 65 2.4 NW 19 24 10 13 1030.3 1030.3 0.0
01/08:30am 6.5 1.1 1.0 68 2.2 NW 19 26 10 14 1030.3 1030.3 0.0
01/08:00am 5.9 0.5 1.2 72 1.8 NNW 19 26 10 14 1030.1 1030.1 0.0
01/07:30am 5.9 0.5 1.1 71 1.9 NNW 19 24 10 13 1030.0 1030.0 0.0
01/07:00am 6.2 0.6 1.1 70 2.0 NW 20 30 11 16 1029.6 1029.7 0.0
01/06:30am 5.9 0.9 1.1 71 1.9 NW 17 24 9 13 1029.5 1029.6 0.0
01/06:00am 6.1 1.1 1.1 70 2.0 NW 17 20 9 11 1029.3 1029.4 0.0
01/05:30am 6.1 1.0 0.9 69 2.0 NW 17 20 9 11 1029.0 1029.1 0.0
01/05:00am 6.3 1.6 0.8 68 2.1 NW 15 20 8 11 1028.8 1028.9 0.0
01/04:30am 6.2 1.5 0.7 68 2.2 WNW 15 20 8 11 1028.7 1028.8 0.0
01/04:00am 6.2 1.1 0.7 68 2.1 WNW 17 20 9 11 1028.7 1028.8 0.0
01/03:30am 6.2 1.8 0.5 67 2.2 NW 13 19 7 10 1028.6 1028.7 0.0
01/03:00am 6.6 1.8 0.5 65 2.4 NW 15 20 8 11 1028.6 1028.7 0.0
01/02:30am 6.7 2.4 0.8 66 2.3 NW 13 17 7 9 1028.7 1028.8 0.0
01/02:00am 7.2 2.5 0.9 64 2.5 NW 15 19 8 10 1028.6 1028.7 0.0
01/01:30am 7.0 3.1 1.3 67 2.3 WNW 11 17 6 9 1028.8 1028.9 0.0
01/01:00am 7.4 3.2 1.5 66 2.4 W 13 19 7 10 1028.7 1028.8 0.0
01/12:30am 8.1 3.5 1.5 63 2.7 WNW 15 20 8 11 1028.7 1028.8 0.0
01/12:00am 8.0 3.0 1.6 64 2.6 WNW 17 19 9 10 1028.8 1028.9 0.0
 
Date/Time
EST
Temp
°C
App
Temp
°C
Dew
Point
°C
Rel
Hum
%
Delta-T
°C
Wind Press
QNH
hPa
Press
MSL
hPa
Rain since
9am
mm
Dir  Spd
km/h
Gust
km/h
Spd
kts
Gust
kts
30/11:30pm 8.4 2.9 1.6 62 2.8 W 20 28 11 15 1028.8 1028.9 0.0
30/11:00pm 9.0 3.1 1.9 61 2.9 W 22 28 12 15 1028.8 1028.9 0.0
30/10:30pm 8.9 3.9 3.5 69 2.3 W 19 28 10 15 1028.7 1028.8 0.0
30/10:00pm 9.0 3.7 3.0 66 2.5 W 20 24 11 13 1028.6 1028.7 0.0
30/09:30pm 9.0 4.2 4.4 73 2.0 WSW 19 22 10 12 1028.4 1028.5 0.0

Latest Capital City Observations: Canberra | Sydney | Melbourne | Brisbane | Adelaide | Perth | Hobart | Darwin

Other formats

Comma delimited format used in spreadsheet applications
http://www.bom.gov.au/fwo/IDT60901/IDT60901.94951.axf

JavaScript Object Notation format (JSON) in row-major order
http://www.bom.gov.au/fwo/IDT60901/IDT60901.94951.json

Data quality

Most of these data are generated automatically and are frequently updated. Quality checks on data are not normally performed. It is possible for incorrect values to appear. Refer to information at About Latest Weather Observations and please check the disclaimer before using these data.